Time;durP1;ratioP1;P1;durP2;ratioP2;P2;SDS_P1;SDS_P2;PMS_P1;PMS_P2;Temp;Humidity;BMP_temperature;BMP_pressure;BME280_temperature;BME280_humidity;BME280_pressure;Samples;Min_cycle;Max_cycle;Signal;HPM_P1;HPM_P2
2022/05/01 00:01:27;;;;;;;;;27.50;27.00;;;;;;;;6494848;46;8858;-59
2022/05/01 00:07:30;;;;;;;;;26.50;25.50;;;;;;;;6494566;39;8993;-59
2022/05/01 00:13:36;;;;;;;;;24.25;24.25;;;;;;;;6494133;46;9360;-59
2022/05/01 00:19:38;;;;;;;;;27.00;22.25;;;;;;;;6493833;46;8882;-59
2022/05/01 00:25:53;;;;;;;;;25.25;25.00;;;;;;;;6511189;36;9148;-59
2022/05/01 00:31:55;;;;;;;;;37.50;30.00;;;;;;;;6494271;46;8852;-59
2022/05/01 00:37:58;;;;;;;;;26.25;22.75;;;;;;;;6494141;31;8952;-59
2022/05/01 00:44:06;;;;;;;;;25.67;25.67;;;;;;;;6494469;39;8895;-58
2022/05/01 00:50:12;;;;;;;;;27.50;26.25;;;;;;;;6493103;46;8883;-59
2022/05/01 00:56:14;;;;;;;;;25.75;25.75;;;;;;;;6494697;31;8856;-57
2022/05/01 01:02:17;;;;;;;;;27.50;24.25;;;;;;;;6493757;39;8887;-59
2022/05/01 01:08:21;;;;;;;;;27.25;26.50;;;;;;;;6493543;39;8872;-58
2022/05/01 01:14:24;;;;;;;;;21.00;18.00;;;;;;;;6493689;39;8903;-59
2022/05/01 01:20:28;;;;;;;;;26.25;25.75;;;;;;;;6493486;31;8964;-59
2022/05/01 01:26:34;;;;;;;;;24.25;23.25;;;;;;;;6493696;31;9289;-59
2022/05/01 01:32:39;;;;;;;;;20.75;19.75;;;;;;;;6493438;46;8864;-58
2022/05/01 01:38:43;;;;;;;;;24.25;21.00;;;;;;;;6493506;39;8914;-59
2022/05/01 01:44:45;;;;;;;;;26.25;24.00;;;;;;;;6494815;31;8841;-59
2022/05/01 01:51:04;;;;;;;;;23.00;18.50;;;;;;;;6493117;46;9020;-58
2022/05/01 01:57:10;;;;;;;;;22.75;20.50;;;;;;;;6493391;46;8821;-59
2022/05/01 02:03:12;;;;;;;;;27.75;25.50;;;;;;;;6493317;31;9507;-59
2022/05/01 02:09:16;;;;;;;;;29.50;28.25;;;;;;;;6492369;46;8885;-59
2022/05/01 02:15:20;;;;;;;;;18.25;18.25;;;;;;;;6493284;31;8879;-58
2022/05/01 02:21:34;;;;;;;;;20.75;19.50;;;;;;;;6492482;39;9428;-58
2022/05/01 02:27:37;;;;;;;;;24.50;22.25;;;;;;;;6493515;46;8896;-59
2022/05/01 02:33:39;;;;;;;;;24.75;24.00;;;;;;;;6492463;46;8900;-58
2022/05/01 02:39:41;;;;;;;;;23.25;22.50;;;;;;;;6493149;39;8879;-59
2022/05/01 02:45:44;;;;;;;;;23.50;22.75;;;;;;;;6493970;39;9752;-59
2022/05/01 02:51:46;;;;;;;;;27.75;26.00;;;;;;;;6492263;46;8913;-58
2022/05/01 02:57:49;;;;;;;;;23.75;22.25;;;;;;;;6493658;39;8858;-59
2022/05/01 03:03:57;;;;;;;;;25.00;22.50;;;;;;;;6493301;31;8977;-58
2022/05/01 03:09:59;;;;;;;;;23.25;23.25;;;;;;;;6493202;39;9313;-59
2022/05/01 03:16:03;;;;;;;;;24.50;24.50;;;;;;;;6492414;39;8911;-59
2022/05/01 03:22:15;;;;;;;;;26.00;24.50;;;;;;;;6491460;46;8876;-58
2022/05/01 03:28:17;;;;;;;;;32.33;25.67;;;;;;;;6494082;31;9101;-59
2022/05/01 03:34:20;;;;;;;;;23.00;22.75;;;;;;;;6492280;39;9018;-59
2022/05/01 03:40:24;;;;;;;;;23.25;23.25;;;;;;;;6491823;47;8862;-59
2022/05/01 03:46:26;;;;;;;;;24.50;23.50;;;;;;;;6493037;39;9879;-59
2022/05/01 03:52:28;;;;;;;;;23.00;22.50;;;;;;;;6491346;47;8883;-59
2022/05/01 03:58:31;;;;;;;;;27.75;27.00;;;;;;;;6491788;31;8864;-58
2022/05/01 04:04:35;;;;;;;;;23.75;20.75;;;;;;;;6491505;39;8929;-59
2022/05/01 04:10:42;;;;;;;;;29.75;24.75;;;;;;;;6492519;39;8797;-58
2022/05/01 04:16:45;;;;;;;;;21.00;18.25;;;;;;;;6492603;39;8929;-58
2022/05/01 04:22:49;;;;;;;;;24.25;23.25;;;;;;;;6492656;39;9630;-58
2022/05/01 04:35:11;;;;;;;;;24.00;20.00;;;;;;;;6490959;39;9467;-58
2022/05/01 04:43:43;;;;;;;;;26.50;24.50;;;;;;;;6496085;39;9014;-59
2022/05/01 04:49:45;;;;;;;;;25.50;22.75;;;;;;;;6493611;39;9487;-59
2022/05/01 04:55:49;;;;;;;;;26.25;22.00;;;;;;;;6494092;46;8883;-59
2022/05/01 05:01:52;;;;;;;;;27.50;25.00;;;;;;;;6494644;39;8851;-59
2022/05/01 05:07:55;;;;;;;;;21.00;21.00;;;;;;;;6493672;31;8934;-59
2022/05/01 05:13:58;;;;;;;;;24.50;21.75;;;;;;;;6494283;39;9566;-60
2022/05/01 05:20:01;;;;;;;;;27.50;25.00;;;;;;;;6493759;39;8851;-59
2022/05/01 05:26:04;;;;;;;;;24.50;23.25;;;;;;;;6493853;39;8915;-59
2022/05/01 05:32:08;;;;;;;;;20.50;19.25;;;;;;;;6493476;39;8906;-59
2022/05/01 05:38:10;;;;;;;;;22.25;19.75;;;;;;;;6493788;39;9715;-59
2022/05/01 05:44:14;;;;;;;;;19.50;19.50;;;;;;;;6493499;46;8851;-58
2022/05/01 05:50:17;;;;;;;;;22.00;18.00;;;;;;;;6492734;46;8867;-60
2022/05/01 05:56:20;;;;;;;;;21.25;18.25;;;;;;;;6495209;39;8832;-60
2022/05/01 06:02:23;;;;;;;;;25.50;25.50;;;;;;;;6493250;39;8981;-59
2022/05/01 06:08:26;;;;;;;;;21.75;21.75;;;;;;;;6493226;39;8986;-60
2022/05/01 06:14:29;;;;;;;;;23.75;21.00;;;;;;;;6493237;46;8907;-59
2022/05/01 06:20:31;;;;;;;;;20.50;20.50;;;;;;;;6493410;31;8859;-59
2022/05/01 06:26:34;;;;;;;;;22.00;19.25;;;;;;;;6494209;39;8907;-59
2022/05/01 06:32:40;;;;;;;;;19.33;17.67;;;;;;;;6492409;31;8875;-59
2022/05/01 06:38:45;;;;;;;;;17.67;17.67;;;;;;;;6493260;31;8891;-59
2022/05/01 06:44:48;;;;;;;;;22.33;20.67;;;;;;;;6494441;39;9002;-59
2022/05/01 06:50:51;;;;;;;;;19.67;17.33;;;;;;;;6492601;46;8946;-59
2022/05/01 06:56:55;;;;;;;;;23.00;20.33;;;;;;;;6492201;46;8891;-57
2022/05/01 07:02:58;;;;;;;;;21.33;18.00;;;;;;;;6493140;46;9061;-58
2022/05/01 07:09:02;;;;;;;;;19.33;18.00;;;;;;;;6493484;39;8876;-60
2022/05/01 07:15:06;;;;;;;;;18.33;17.00;;;;;;;;6492943;47;8887;-59
2022/05/01 07:21:11;;;;;;;;;19.00;15.33;;;;;;;;6493210;39;9096;-59
2022/05/01 07:27:17;;;;;;;;;21.00;19.33;;;;;;;;6491312;47;8939;-59
2022/05/01 07:33:23;;;;;;;;;6.00;5.33;;;;;;;;6493708;31;8990;-60
2022/05/01 07:39:26;;;;;;;;;16.67;15.33;;;;;;;;6492985;39;8961;-60
2022/05/01 07:45:30;;;;;;;;;12.00;12.00;;;;;;;;6491784;31;8971;-60
2022/05/01 07:51:40;;;;;;;;;15.33;13.00;;;;;;;;6492746;47;8961;-60
2022/05/01 07:57:42;;;;;;;;;10.33;9.67;;;;;;;;6492841;31;9015;-59
2022/05/01 08:10:06;;;;;;;;;13.67;13.67;;;;;;;;6492592;39;8850;-59
2022/05/01 08:16:10;;;;;;;;;14.67;14.67;;;;;;;;6494165;31;8945;-60
2022/05/01 08:22:13;;;;;;;;;14.67;14.33;;;;;;;;6494794;39;8892;-60
2022/05/01 08:28:15;;;;;;;;;29.33;27.00;;;;;;;;6493611;39;8897;-59
2022/05/01 08:34:19;;;;;;;;;10.67;9.00;;;;;;;;6495468;39;8892;-60
2022/05/01 08:40:22;;;;;;;;;12.67;12.67;;;;;;;;6493073;46;8987;-60
2022/05/01 08:46:24;;;;;;;;;2.33;1.00;;;;;;;;6495188;31;9011;-59
2022/05/01 08:52:29;;;;;;;;;9.67;9.33;;;;;;;;6494744;39;9468;-60
2022/05/01 08:58:34;;;;;;;;;8.33;7.00;;;;;;;;6493647;31;8996;-59
2022/05/01 09:04:38;;;;;;;;;12.00;11.00;;;;;;;;6494740;39;8845;-59
2022/05/01 09:10:43;;;;;;;;;9.67;9.67;;;;;;;;6493907;31;8873;-60
2022/05/01 09:17:13;;;;;;;;;10.25;10.25;;;;;;;;6493962;31;8881;-60
2022/05/01 09:23:35;;;;;;;;;10.75;10.75;;;;;;;;6493452;39;8924;-60
2022/05/01 09:29:39;;;;;;;;;8.75;8.75;;;;;;;;6493743;39;8944;-60
2022/05/01 09:35:41;;;;;;;;;8.50;7.75;;;;;;;;6492834;46;9005;-59
2022/05/01 09:41:45;;;;;;;;;8.75;8.50;;;;;;;;6493648;39;8873;-59
2022/05/01 09:47:48;;;;;;;;;12.75;11.00;;;;;;;;6493752;39;8830;-59
2022/05/01 09:53:50;;;;;;;;;9.25;9.25;;;;;;;;6493423;46;8893;-60
2022/05/01 09:59:52;;;;;;;;;8.50;7.00;;;;;;;;6493893;39;8921;-59
2022/05/01 10:05:56;;;;;;;;;7.50;7.50;;;;;;;;6493600;39;9068;-59
2022/05/01 10:12:06;;;;;;;;;8.00;8.00;;;;;;;;6492497;46;8894;-60
2022/05/01 10:18:11;;;;;;;;;11.25;10.25;;;;;;;;6493993;39;8841;-59
2022/05/01 10:24:17;;;;;;;;;9.00;9.00;;;;;;;;6492928;46;8979;-60
2022/05/01 10:37:03;;;;;;;;;23.33;23.00;;;;;;;;6493182;31;8918;-59
2022/05/01 10:43:52;;;;;;;;;12.50;8.50;;;;;;;;6492580;46;8842;-60
2022/05/01 10:50:06;;;;;;;;;8.50;7.50;;;;;;;;6491960;39;8877;-60
2022/05/01 10:56:26;;;;;;;;;9.75;8.25;;;;;;;;6492426;31;8878;-59
2022/05/01 11:02:38;;;;;;;;;17.75;15.50;;;;;;;;6492868;39;8934;-59
2022/05/01 11:08:41;;;;;;;;;10.25;10.25;;;;;;;;6492639;39;8905;-59
2022/05/01 11:14:53;;;;;;;;;11.25;11.00;;;;;;;;6493241;46;8914;-60
2022/05/01 11:21:27;;;;;;;;;11.00;10.25;;;;;;;;6491902;39;8870;-60
2022/05/01 11:27:54;;;;;;;;;9.00;9.00;;;;;;;;6492701;47;8969;-59
2022/05/01 11:34:15;;;;;;;;;25.75;25.50;;;;;;;;6491466;39;8862;-60
2022/05/01 11:40:18;;;;;;;;;7.00;7.00;;;;;;;;6493045;39;8842;-60
2022/05/01 11:46:20;;;;;;;;;19.75;16.75;;;;;;;;6493676;39;8878;-58
2022/05/01 11:52:24;;;;;;;;;16.50;16.25;;;;;;;;6494803;39;8910;-61
2022/05/01 12:05:10;;;;;;;;;14.00;14.00;;;;;;;;6492460;39;8934;-59
2022/05/01 12:11:26;;;;;;;;;11.00;9.50;;;;;;;;6494798;39;9522;-61
2022/05/01 12:17:32;;;;;;;;;5.00;3.67;;;;;;;;6493610;31;8890;-59
2022/05/01 12:23:46;;;;;;;;;20.33;20.33;;;;;;;;6494905;39;8819;-59
2022/05/01 12:29:54;;;;;;;;;12.67;12.33;;;;;;;;6493530;46;8941;-60
2022/05/01 12:35:58;;;;;;;;;14.50;13.50;;;;;;;;6494624;39;8895;-60
2022/05/01 12:48:40;;;;;;;;;9.50;8.75;;;;;;;;6493474;46;8873;-60
2022/05/01 12:55:08;;;;;;;;;17.33;15.67;;;;;;;;6494619;39;8878;-59
2022/05/01 13:01:23;;;;;;;;;13.00;13.00;;;;;;;;6493401;39;9531;-60
2022/05/01 13:07:28;;;;;;;;;25.67;20.67;;;;;;;;6493485;31;8842;-59
2022/05/01 13:13:44;;;;;;;;;10.50;10.50;;;;;;;;6492983;39;8952;-61
2022/05/01 13:19:46;;;;;;;;;15.00;14.67;;;;;;;;6493634;31;8822;-59
2022/05/01 13:25:49;;;;;;;;;15.67;15.33;;;;;;;;6493263;39;8937;-60
2022/05/01 13:31:52;;;;;;;;;12.33;12.33;;;;;;;;6493862;39;8989;-59
2022/05/01 13:37:54;;;;;;;;;12.25;9.00;;;;;;;;6493621;39;9506;-60
2022/05/01 13:50:22;;;;;;;;;10.00;8.25;;;;;;;;6494030;39;9498;-59
2022/05/01 13:56:25;;;;;;;;;21.33;20.00;;;;;;;;6493615;31;8928;-59
2022/05/01 14:02:34;;;;;;;;;17.33;15.33;;;;;;;;6493237;46;8875;-60
2022/05/01 14:08:37;;;;;;;;;20.33;19.67;;;;;;;;6492789;39;8878;-60
2022/05/01 14:14:39;;;;;;;;;7.00;6.67;;;;;;;;6492838;31;8989;-60
2022/05/01 14:20:45;;;;;;;;;12.25;12.25;;;;;;;;6493839;39;9051;-59
2022/05/01 14:26:47;;;;;;;;;11.25;11.00;;;;;;;;6493624;31;8993;-59
2022/05/01 14:32:54;;;;;;;;;13.67;13.67;;;;;;;;6493642;39;8830;-60
2022/05/01 14:39:03;;;;;;;;;16.67;13.67;;;;;;;;6492097;39;8950;-60
2022/05/01 14:45:07;;;;;;;;;10.67;10.00;;;;;;;;6492570;39;8916;-60
2022/05/01 14:51:10;;;;;;;;;10.67;10.67;;;;;;;;6493416;31;8937;-60
2022/05/01 14:57:16;;;;;;;;;7.33;7.00;;;;;;;;6492428;39;9021;-61
2022/05/01 15:09:49;;;;;;;;;12.33;12.33;;;;;;;;6492989;39;9025;-60
2022/05/01 15:16:12;;;;;;;;;10.33;10.00;;;;;;;;6493003;39;9900;-59
2022/05/01 15:22:30;;;;;;;;;18.00;15.67;;;;;;;;6491970;46;8866;-60
2022/05/01 15:28:35;;;;;;;;;10.00;10.00;;;;;;;;6492937;39;8917;-58
2022/05/01 15:34:42;;;;;;;;;13.00;10.33;;;;;;;;6492139;39;9013;-60
2022/05/01 15:40:47;;;;;;;;;9.33;9.00;;;;;;;;6492545;39;9037;-60
2022/05/01 15:46:56;;;;;;;;;10.50;9.50;;;;;;;;6492393;46;8846;-60
2022/05/01 15:59:22;;;;;;;;;10.00;10.00;;;;;;;;6493143;39;8822;-60
2022/05/01 16:05:26;;;;;;;;;15.67;15.67;;;;;;;;6492556;31;8922;-60
2022/05/01 16:11:40;;;;;;;;;12.67;12.67;;;;;;;;6492290;39;8905;-60
2022/05/01 16:17:58;;;;;;;;;16.00;13.00;;;;;;;;6492584;39;9498;-60
2022/05/01 16:24:15;;;;;;;;;20.67;19.00;;;;;;;;6491932;39;9471;-59
2022/05/01 16:30:22;;;;;;;;;20.67;18.33;;;;;;;;6492516;31;9043;-60
2022/05/01 16:36:27;;;;;;;;;15.00;13.67;;;;;;;;6493618;39;8946;-59
2022/05/01 16:42:35;;;;;;;;;18.67;17.33;;;;;;;;6494636;39;8835;-60
2022/05/01 16:48:39;;;;;;;;;15.00;13.67;;;;;;;;6494240;39;8971;-59
2022/05/01 16:54:46;;;;;;;;;15.00;13.00;;;;;;;;6493719;39;8870;-59
2022/05/01 17:00:53;;;;;;;;;18.00;17.00;;;;;;;;6493678;39;8835;-60
2022/05/01 17:07:14;;;;;;;;;19.67;17.33;;;;;;;;6493017;39;8877;-60
2022/05/01 17:13:34;;;;;;;;;16.00;14.33;;;;;;;;6494583;39;8878;-59
2022/05/01 17:19:42;;;;;;;;;15.33;14.33;;;;;;;;6493272;39;9526;-61
2022/05/01 17:25:56;;;;;;;;;16.00;16.00;;;;;;;;6494186;39;8870;-59
2022/05/01 17:32:03;;;;;;;;;17.67;16.33;;;;;;;;6493951;39;8834;-59
2022/05/01 17:38:06;;;;;;;;;13.00;13.00;;;;;;;;6494766;31;8870;-59
2022/05/01 17:44:10;;;;;;;;;18.67;17.33;;;;;;;;6494473;39;8830;-60
2022/05/01 17:50:14;;;;;;;;;20.00;18.33;;;;;;;;6493811;31;8964;-58
2022/05/01 17:56:18;;;;;;;;;14.33;14.33;;;;;;;;6494869;31;8875;-60
2022/05/01 18:02:28;;;;;;;;;21.67;20.33;;;;;;;;6493725;39;8902;-59
2022/05/01 18:15:46;;;;;;;;;14.33;14.33;;;;;;;;6492864;39;9932;-59
2022/05/01 18:22:10;;;;;;;;;22.00;19.33;;;;;;;;6493385;39;8854;-60
2022/05/01 18:35:02;;;;;;;;;17.00;15.33;;;;;;;;6493728;31;8862;-59
2022/05/01 18:41:05;;;;;;;;;19.00;19.00;;;;;;;;6492725;46;8878;-59
2022/05/01 18:47:10;;;;;;;;;17.33;13.33;;;;;;;;6492028;39;8898;-62
2022/05/01 18:53:15;;;;;;;;;14.67;14.67;;;;;;;;6493265;39;8890;-60
2022/05/01 18:59:23;;;;;;;;;15.67;12.67;;;;;;;;6492892;31;8874;-59
2022/05/01 19:05:25;;;;;;;;;15.00;13.00;;;;;;;;6493481;46;8977;-59
2022/05/01 19:11:58;;;;;;;;;12.00;12.00;;;;;;;;6492314;46;8934;-59
2022/05/01 19:18:51;;;;;;;;;7.67;7.67;;;;;;;;6492924;46;8911;-60
2022/05/01 19:31:50;;;;;;;;;13.67;13.00;;;;;;;;6493516;39;8946;-60
2022/05/01 19:37:55;;;;;;;;;14.67;14.00;;;;;;;;6493044;31;8914;-60
2022/05/01 19:44:08;;;;;;;;;16.00;14.67;;;;;;;;6493560;31;8881;-59
2022/05/01 19:56:44;;;;;;;;;15.00;11.67;;;;;;;;6493624;31;8874;-60
2022/05/01 20:02:48;;;;;;;;;13.33;12.67;;;;;;;;6492405;31;9470;-59
2022/05/01 20:08:57;;;;;;;;;12.00;12.00;;;;;;;;6493213;31;8858;-59
2022/05/01 20:14:59;;;;;;;;;15.75;15.75;;;;;;;;6494804;39;8894;-59
2022/05/01 20:21:15;;;;;;;;;12.00;9.67;;;;;;;;6494586;31;8965;-59
2022/05/01 20:27:33;;;;;;;;;17.33;17.00;;;;;;;;6494957;39;8862;-60
2022/05/01 20:33:51;;;;;;;;;13.00;13.00;;;;;;;;6493988;39;9132;-60
2022/05/01 20:40:22;;;;;;;;;17.50;17.50;;;;;;;;6495075;31;8873;-59
2022/05/01 20:46:47;;;;;;;;;20.25;19.00;;;;;;;;6493620;46;8890;-59
2022/05/01 20:53:18;;;;;;;;;18.25;16.00;;;;;;;;6494861;39;8842;-59
2022/05/01 20:59:21;;;;;;;;;18.25;17.00;;;;;;;;6493541;31;8933;-59
2022/05/01 21:05:26;;;;;;;;;17.75;14.50;;;;;;;;6494144;46;8894;-59
2022/05/01 21:11:30;;;;;;;;;18.25;16.75;;;;;;;;6493857;39;9383;-59
2022/05/01 21:17:34;;;;;;;;;17.75;16.00;;;;;;;;6492674;39;8928;-59
2022/05/01 21:23:43;;;;;;;;;16.75;15.00;;;;;;;;6494022;39;8850;-59
2022/05/01 21:36:07;;;;;;;;;14.00;13.25;;;;;;;;6494148;39;8965;-60
2022/05/01 21:42:13;;;;;;;;;14.00;14.00;;;;;;;;6493343;46;8835;-59
2022/05/01 21:48:16;;;;;;;;;13.25;13.25;;;;;;;;6493281;39;8874;-60
2022/05/01 21:54:21;;;;;;;;;13.00;12.25;;;;;;;;6494879;39;8870;-59
2022/05/01 22:00:24;;;;;;;;;13.75;12.75;;;;;;;;6493171;31;9028;-59
2022/05/01 22:06:27;;;;;;;;;11.00;11.00;;;;;;;;6493705;46;8909;-59
2022/05/01 22:12:29;;;;;;;;;14.50;12.75;;;;;;;;6492546;46;8942;-59
2022/05/01 22:18:32;;;;;;;;;13.50;12.75;;;;;;;;6493057;39;8926;-60
2022/05/01 22:24:38;;;;;;;;;12.50;12.25;;;;;;;;6493000;46;8906;-60
2022/05/01 22:30:42;;;;;;;;;16.00;13.50;;;;;;;;6492116;46;8890;-59
2022/05/01 22:43:12;;;;;;;;;16.00;15.00;;;;;;;;6492814;39;8870;-58
2022/05/01 22:49:16;;;;;;;;;14.25;12.50;;;;;;;;6493279;46;8835;-60
2022/05/01 22:55:18;;;;;;;;;17.75;17.50;;;;;;;;6492385;46;8936;-60
2022/05/01 23:01:20;;;;;;;;;15.75;15.25;;;;;;;;6493436;39;8838;-59
2022/05/01 23:07:23;;;;;;;;;16.00;15.25;;;;;;;;6494511;31;9783;-59
2022/05/01 23:13:29;;;;;;;;;17.25;17.25;;;;;;;;6492929;39;8830;-58
2022/05/01 23:19:34;;;;;;;;;22.25;20.50;;;;;;;;6492934;39;8880;-60
2022/05/01 23:25:37;;;;;;;;;23.75;22.50;;;;;;;;6494258;39;9030;-59
2022/05/01 23:31:39;;;;;;;;;28.50;24.50;;;;;;;;6492676;39;9039;-59
2022/05/01 23:37:44;;;;;;;;;28.75;27.25;;;;;;;;6491630;39;8991;-59
2022/05/01 23:43:46;;;;;;;;;30.00;24.75;;;;;;;;6493757;39;9581;-60
2022/05/01 23:49:51;;;;;;;;;25.75;25.00;;;;;;;;6495042;39;8879;-59
2022/05/01 23:55:58;;;;;;;;;24.50;22.50;;;;;;;;6494506;31;8915;-60
